createdAt,value
2023-05-19T00:05:59.338Z,100638.19
2023-05-19T00:11:02.790Z,100622.72
2023-05-19T00:16:06.499Z,100644.06
2023-05-19T00:21:08.801Z,100624.16
2023-05-19T00:26:11.266Z,100624.72
2023-05-19T00:31:13.683Z,100632.28
2023-05-19T00:36:16.102Z,100616.22
2023-05-19T00:41:18.709Z,100612.28
2023-05-19T00:46:21.148Z,100551.06
2023-05-19T00:51:26.685Z,100610.88
2023-05-19T00:56:29.231Z,100568.91
2023-05-19T01:01:32.625Z,100608.25
2023-05-19T01:06:35.197Z,100622.69
2023-05-19T01:11:37.465Z,100620.47
2023-05-19T01:17:09.231Z,100620.63
2023-05-19T01:22:29.598Z,100623.03
2023-05-19T01:28:07.243Z,100556.81
2023-05-19T01:33:14.559Z,100606.75
2023-05-19T01:38:19.364Z,100608.25
2023-05-19T01:43:24.674Z,100621.28
2023-05-19T01:48:28.103Z,100604.38
2023-05-19T01:53:30.374Z,100600.56
2023-05-19T01:58:44.366Z,100616.66
2023-05-19T02:04:20.623Z,100617.06
2023-05-19T02:09:50.715Z,100619.75
2023-05-19T02:15:16.941Z,100621.50
2023-05-19T02:20:22.554Z,100614.78
2023-05-19T02:25:25.008Z,100589.94
2023-05-19T02:30:27.577Z,100600.88
2023-05-19T02:35:29.922Z,100639.94
2023-05-19T02:40:32.371Z,100643.31
2023-05-19T02:45:34.732Z,100654.38
2023-05-19T02:50:37.233Z,100651.34
2023-05-19T02:55:39.661Z,100646.44
2023-05-19T03:00:41.905Z,100624.63
2023-05-19T03:05:44.416Z,100628.53
2023-05-19T03:10:47.405Z,100654.75
2023-05-19T03:15:51.489Z,100665.41
2023-05-19T03:20:54.457Z,100678.22
2023-05-19T03:25:56.932Z,100679.16
2023-05-19T03:30:59.262Z,100689.84
2023-05-19T03:36:01.692Z,100681.56
2023-05-19T03:41:04.212Z,100669.22
2023-05-19T03:46:07.086Z,100657.63
2023-05-19T03:51:09.540Z,100583.25
2023-05-19T03:56:15.209Z,100596.94
2023-05-19T04:01:17.930Z,100635.28
2023-05-19T04:06:20.535Z,100686.69
2023-05-19T04:11:22.911Z,100703.25
2023-05-19T04:16:25.421Z,100671.38
2023-05-19T04:21:28.064Z,100644.16
2023-05-19T04:26:31.435Z,100673.03
2023-05-19T04:31:34.870Z,100648.53
2023-05-19T04:36:38.325Z,100588.38
2023-05-19T04:41:40.992Z,100675.78
2023-05-19T04:46:45.627Z,100674.56
2023-05-19T04:51:51.837Z,100673.88
2023-05-19T04:56:55.072Z,100694.50
2023-05-19T05:01:57.794Z,100678.78
2023-05-19T05:07:00.296Z,100697.16
2023-05-19T05:12:03.726Z,100717.75
2023-05-19T05:17:06.602Z,100716.50
2023-05-19T05:22:09.200Z,100710.34
2023-05-19T05:27:11.541Z,100717.72
2023-05-19T05:32:13.898Z,100670.88
2023-05-19T05:37:16.351Z,100722.47
2023-05-19T05:42:20.741Z,100648.06
2023-05-19T05:47:23.329Z,100670.72
2023-05-19T05:52:31.101Z,100721.41
2023-05-19T05:57:35.742Z,100719.44
2023-05-19T06:02:38.425Z,100738.00
2023-05-19T06:07:41.575Z,100736.25
2023-05-19T06:12:43.901Z,100735.72
2023-05-19T06:17:46.336Z,100728.91
2023-05-19T06:22:48.666Z,100715.50
2023-05-19T06:27:51.197Z,100705.13
2023-05-19T06:32:53.756Z,100725.69
2023-05-19T06:37:58.952Z,100668.22
2023-05-19T06:43:01.366Z,100700.38
2023-05-19T06:48:04.328Z,100715.97
2023-05-19T06:53:06.700Z,100722.28
2023-05-19T06:58:09.075Z,100694.44
2023-05-19T07:03:11.485Z,100708.47
2023-05-19T07:08:13.996Z,100699.28
2023-05-19T07:13:16.336Z,100687.31
2023-05-19T07:18:18.991Z,100710.75
2023-05-19T07:23:21.493Z,100688.56
2023-05-19T07:28:23.813Z,100714.91
2023-05-19T07:33:27.393Z,100684.34
2023-05-19T07:38:31.906Z,100700.00
2023-05-19T07:43:34.640Z,100682.53
2023-05-19T07:48:37.563Z,100639.28
2023-05-19T07:53:40.186Z,100697.13
2023-05-19T07:58:42.405Z,100694.69
2023-05-19T08:03:44.844Z,100677.00
2023-05-19T08:08:47.946Z,100672.31
2023-05-19T08:13:50.258Z,100684.81
2023-05-19T08:18:52.777Z,100699.19
2023-05-19T08:23:55.186Z,100692.84
2023-05-19T08:28:57.502Z,100689.84
2023-05-19T08:33:59.895Z,100701.25
2023-05-19T08:39:02.426Z,100692.88
2023-05-19T08:44:05.750Z,100705.44
2023-05-19T08:49:14.412Z,100630.38
2023-05-19T08:54:18.507Z,100708.13
2023-05-19T08:59:22.620Z,100702.91
2023-05-19T09:04:30.970Z,100701.06
2023-05-19T09:09:33.649Z,100692.19
2023-05-19T09:14:36.785Z,100678.25
2023-05-19T09:19:45.175Z,100684.00
2023-05-19T09:24:48.539Z,100686.44
2023-05-19T09:29:51.411Z,100681.22
2023-05-19T09:34:57.495Z,100677.91
2023-05-19T09:40:00.406Z,100681.53
2023-05-19T09:45:04.022Z,100678.44
2023-05-19T09:50:11.205Z,100666.66
2023-05-19T09:55:14.348Z,100666.44
2023-05-19T10:00:20.048Z,100668.53
2023-05-19T10:05:23.133Z,100682.00
2023-05-19T10:10:26.010Z,100674.59
2023-05-19T10:15:28.851Z,100679.53
2023-05-19T10:20:35.465Z,100670.81
2023-05-19T10:25:39.318Z,100664.50
2023-05-19T10:30:51.385Z,100669.38
2023-05-19T10:36:21.668Z,100678.41
2023-05-19T10:41:48.120Z,100680.63
2023-05-19T10:46:50.540Z,100659.78
2023-05-19T10:51:57.281Z,100653.53
2023-05-19T10:56:59.672Z,100631.34
2023-05-19T11:02:09.397Z,100593.25
2023-05-19T11:07:16.048Z,100646.66
2023-05-19T11:12:25.387Z,100621.81
2023-05-19T11:17:29.610Z,100651.97
2023-05-19T11:22:36.444Z,100651.78
2023-05-19T11:27:40.842Z,100630.13
2023-05-19T11:32:44.700Z,100640.06
2023-05-19T11:37:49.613Z,100610.94
2023-05-19T11:42:52.063Z,100586.25
2023-05-19T11:48:02.356Z,100606.75
2023-05-19T11:53:05.766Z,100637.16
2023-05-19T11:58:08.684Z,100646.66
2023-05-19T12:03:11.235Z,100575.75
2023-05-19T12:08:13.929Z,100637.28
2023-05-19T12:13:16.656Z,100625.72
2023-05-19T12:18:20.199Z,100624.28
2023-05-19T12:23:23.374Z,100623.38
2023-05-19T12:28:26.219Z,100624.94
2023-05-19T12:33:28.573Z,100561.50
2023-05-19T12:38:30.935Z,100575.41
2023-05-19T12:43:33.918Z,100592.81
2023-05-19T12:48:36.590Z,100629.88
2023-05-19T12:53:39.144Z,100567.75
2023-05-19T12:58:44.517Z,100630.41
2023-05-19T13:03:47.159Z,100641.72
2023-05-19T13:08:49.888Z,100624.16
2023-05-19T13:13:52.267Z,100650.75
2023-05-19T13:18:54.931Z,100643.72
2023-05-19T13:23:57.703Z,100629.56
2023-05-19T13:29:00.052Z,100629.34
2023-05-19T13:34:03.155Z,100643.91
2023-05-19T13:39:05.412Z,100633.19
2023-05-19T13:44:07.869Z,100621.97
2023-05-19T13:49:10.244Z,100632.41
2023-05-19T13:54:12.550Z,100645.31
2023-05-19T13:59:15.229Z,100620.91
2023-05-19T14:04:19.918Z,100623.56
2023-05-19T14:09:22.289Z,100603.03
2023-05-19T14:14:25.337Z,100640.88
2023-05-19T14:19:30.556Z,100600.94
2023-05-19T14:24:33.071Z,100643.84
2023-05-19T14:29:35.849Z,100595.16
2023-05-19T14:34:38.389Z,100571.31
2023-05-19T14:39:40.701Z,100623.56
2023-05-19T14:44:42.933Z,100600.28
2023-05-19T14:49:45.606Z,100622.22
2023-05-19T14:54:48.059Z,100616.41
2023-05-19T14:59:50.473Z,100586.63
2023-05-19T15:04:52.820Z,100617.66
2023-05-19T15:09:55.686Z,100598.00
2023-05-19T15:14:58.016Z,100568.94
2023-05-19T15:20:00.323Z,100590.81
2023-05-19T15:25:02.632Z,100587.63
2023-05-19T15:30:06.281Z,100566.44
2023-05-19T15:35:09.161Z,100587.63
2023-05-19T15:40:12.301Z,100574.66
2023-05-19T15:45:14.748Z,100565.34
2023-05-19T15:50:17.065Z,100544.81
2023-05-19T15:55:19.540Z,100542.50
2023-05-19T16:00:22.142Z,100562.00
2023-05-19T16:05:24.477Z,100569.97
2023-05-19T16:10:27.234Z,100544.94
2023-05-19T16:15:30.064Z,100564.81
2023-05-19T16:20:32.614Z,100580.50
2023-05-19T16:25:35.030Z,100575.69
2023-05-19T16:30:37.343Z,100574.38
2023-05-19T16:35:40.061Z,100573.50
2023-05-19T16:40:42.406Z,100593.22
2023-05-19T16:45:44.643Z,100593.88
2023-05-19T16:50:49.519Z,100594.31
2023-05-19T16:55:51.902Z,100605.97
2023-05-19T17:00:54.306Z,100603.06
2023-05-19T17:05:56.666Z,100592.13
2023-05-19T17:10:59.071Z,100621.97
2023-05-19T17:16:01.953Z,100552.91
2023-05-19T17:21:05.844Z,100583.97
2023-05-19T17:26:08.320Z,100578.84
2023-05-19T17:31:12.628Z,100585.75
2023-05-19T17:36:15.191Z,100638.41
2023-05-19T17:41:17.603Z,100642.59
2023-05-19T17:46:20.020Z,100585.00
2023-05-19T17:51:22.572Z,100642.53
2023-05-19T17:56:25.965Z,100611.03
2023-05-19T18:01:28.567Z,100680.34
2023-05-19T18:06:32.378Z,100689.66
2023-05-19T18:11:34.781Z,100638.31
2023-05-19T18:16:37.254Z,100687.09
2023-05-19T18:21:39.615Z,100685.44
2023-05-19T18:26:42.441Z,100666.16
2023-05-19T18:31:44.841Z,100648.28
2023-05-19T18:36:47.251Z,100605.63
2023-05-19T18:41:50.217Z,100673.13
2023-05-19T18:46:52.496Z,100687.53
2023-05-19T18:51:54.952Z,100624.34
2023-05-19T18:56:57.318Z,100669.25
2023-05-19T19:01:59.502Z,100698.03
2023-05-19T19:07:01.933Z,100682.28
2023-05-19T19:12:04.409Z,100694.50
2023-05-19T19:17:06.819Z,100706.25
2023-05-19T19:22:09.304Z,100691.78
2023-05-19T19:27:12.126Z,100700.00
2023-05-19T19:32:14.936Z,100591.03
2023-05-19T19:37:17.320Z,100672.53
2023-05-19T19:42:22.374Z,100693.69
2023-05-19T19:47:24.870Z,100693.94
2023-05-19T19:52:27.438Z,100689.47
2023-05-19T19:57:32.044Z,100706.69
2023-05-19T20:02:37.162Z,100715.81
2023-05-19T20:07:42.656Z,100728.66
2023-05-19T20:12:45.506Z,100721.03
2023-05-19T20:17:47.842Z,100683.72
2023-05-19T20:22:50.438Z,100707.44
2023-05-19T20:27:52.770Z,100708.38
2023-05-19T20:32:55.118Z,100712.56
2023-05-19T20:37:57.628Z,100729.91
2023-05-19T20:43:00.289Z,100724.31
2023-05-19T20:48:04.341Z,100725.81
2023-05-19T20:53:07.849Z,100707.41
2023-05-19T20:58:10.393Z,100718.72
2023-05-19T21:03:12.711Z,100722.53
2023-05-19T21:08:15.321Z,100725.25
2023-05-19T21:13:21.483Z,100741.50
2023-05-19T21:18:24.230Z,100723.56
2023-05-19T21:23:27.537Z,100725.00
2023-05-19T21:28:30.627Z,100717.59
2023-05-19T21:33:33.409Z,100657.31
2023-05-19T21:38:35.804Z,100641.44
2023-05-19T21:43:38.159Z,100735.94
2023-05-19T21:48:40.659Z,100708.44
2023-05-19T21:53:43.047Z,100727.97
2023-05-19T21:58:45.621Z,100733.44
2023-05-19T22:03:48.370Z,100712.88
2023-05-19T22:08:50.826Z,100745.03
2023-05-19T22:13:55.230Z,100718.88
2023-05-19T22:18:58.593Z,100697.75
2023-05-19T22:24:01.161Z,100723.06
2023-05-19T22:29:03.891Z,100702.63
2023-05-19T22:34:09.309Z,100714.69
2023-05-19T22:39:12.912Z,100691.75
2023-05-19T22:44:16.625Z,100715.16
2023-05-19T22:49:25.701Z,100724.59
2023-05-19T22:54:28.109Z,100722.25
2023-05-19T22:59:30.553Z,100725.91
2023-05-19T23:04:34.025Z,100717.25
2023-05-19T23:09:36.670Z,100706.16
2023-05-19T23:14:39.097Z,100653.38
2023-05-19T23:19:50.414Z,100710.06
2023-05-19T23:24:52.919Z,100643.88
2023-05-19T23:29:55.345Z,100671.16
2023-05-19T23:34:57.678Z,100627.22
2023-05-19T23:40:00.122Z,100635.00
2023-05-19T23:45:02.692Z,100694.84
2023-05-19T23:50:05.292Z,100593.09
2023-05-19T23:55:08.412Z,100670.34
